createdAt,value
2023-04-19T00:01:03.186Z,60.43
2023-04-19T00:03:30.797Z,59.78
2023-04-19T00:06:00.357Z,60.07
2023-04-19T00:08:27.077Z,59.36
2023-04-19T00:10:53.586Z,57.34
2023-04-19T00:13:20.615Z,57.10
2023-04-19T00:15:47.362Z,57.30
2023-04-19T00:18:13.786Z,56.86
2023-04-19T00:20:40.276Z,56.86
2023-04-19T00:23:06.820Z,57.34
2023-04-19T00:25:34.757Z,57.68
2023-04-19T00:28:01.410Z,57.79
2023-04-19T00:30:27.891Z,58.43
2023-04-19T00:32:54.413Z,59.03
2023-04-19T00:35:21.166Z,58.33
2023-04-19T00:37:47.683Z,58.26
2023-04-19T00:40:14.543Z,57.66
2023-04-19T00:42:41.051Z,55.70
2023-04-19T00:45:08.020Z,56.53
2023-04-19T00:47:35.971Z,55.54
2023-04-19T00:50:04.520Z,54.83
2023-04-19T00:52:33.251Z,56.22
2023-04-19T00:55:00.217Z,57.14
2023-04-19T00:57:27.143Z,56.51
2023-04-19T00:59:54.460Z,57.16
2023-04-19T01:02:22.369Z,58.01
2023-04-19T01:04:48.988Z,58.91
2023-04-19T01:07:15.632Z,58.25
2023-04-19T01:09:44.023Z,57.68
2023-04-19T01:12:10.665Z,57.23
2023-04-19T01:14:37.301Z,57.59
2023-04-19T01:17:03.733Z,57.08
2023-04-19T01:19:30.310Z,58.18
2023-04-19T01:21:58.375Z,58.00
2023-04-19T01:24:24.908Z,58.59
2023-04-19T01:26:51.465Z,58.79
2023-04-19T01:29:18.834Z,58.51
2023-04-19T01:31:49.227Z,59.27
2023-04-19T01:34:15.954Z,59.17
2023-04-19T01:36:42.563Z,59.79
2023-04-19T01:39:09.112Z,59.83
2023-04-19T01:41:35.502Z,59.61
2023-04-19T01:44:02.021Z,60.54
2023-04-19T01:46:28.590Z,60.85
2023-04-19T01:48:55.092Z,61.11
2023-04-19T01:51:24.464Z,61.71
2023-04-19T01:53:53.633Z,61.84
2023-04-19T01:56:21.869Z,61.96
2023-04-19T01:58:48.374Z,63.11
2023-04-19T02:01:15.019Z,63.37
2023-04-19T02:03:42.095Z,63.23
2023-04-19T02:06:13.091Z,64.58
2023-04-19T02:08:40.378Z,65.06
2023-04-19T02:11:11.201Z,64.77
2023-04-19T02:13:37.815Z,65.06
2023-04-19T02:16:05.908Z,66.52
2023-04-19T02:18:33.506Z,66.80
2023-04-19T02:21:00.477Z,66.66
2023-04-19T02:23:27.011Z,67.32
2023-04-19T02:25:53.685Z,67.61
2023-04-19T02:28:20.267Z,68.62
2023-04-19T02:30:46.786Z,68.08
2023-04-19T02:33:13.431Z,67.53
2023-04-19T02:35:39.863Z,68.32
2023-04-19T02:38:06.377Z,68.99
2023-04-19T02:40:33.133Z,68.93
2023-04-19T02:42:59.606Z,68.56
2023-04-19T02:45:26.082Z,70.24
2023-04-19T02:47:52.545Z,69.35
2023-04-19T02:50:19.260Z,70.09
2023-04-19T02:52:45.769Z,69.86
2023-04-19T02:55:12.276Z,71.67
2023-04-19T02:57:38.787Z,70.36
2023-04-19T03:00:06.429Z,72.11
2023-04-19T03:02:33.090Z,73.01
2023-04-19T03:04:59.918Z,72.12
2023-04-19T03:07:26.608Z,73.02
2023-04-19T03:09:53.206Z,72.63
2023-04-19T03:12:19.704Z,72.49
2023-04-19T03:14:46.262Z,73.91
2023-04-19T03:17:12.863Z,73.52
2023-04-19T03:19:39.382Z,74.58
2023-04-19T03:22:05.891Z,73.07
2023-04-19T03:24:33.574Z,74.08
2023-04-19T03:27:03.367Z,75.06
2023-04-19T03:29:29.886Z,74.96
2023-04-19T03:31:56.444Z,75.31
2023-04-19T03:34:22.962Z,75.17
2023-04-19T03:36:49.466Z,75.07
2023-04-19T03:39:16.086Z,74.78
2023-04-19T03:41:42.484Z,75.00
2023-04-19T03:44:08.957Z,75.46
2023-04-19T03:46:35.462Z,75.74
2023-04-19T03:49:02.047Z,76.83
2023-04-19T03:51:28.597Z,76.54
2023-04-19T03:53:55.010Z,77.15
2023-04-19T03:56:21.524Z,77.16
2023-04-19T03:58:51.194Z,77.28
2023-04-19T04:01:21.261Z,77.12
2023-04-19T04:03:48.361Z,77.03
2023-04-19T04:06:15.339Z,77.41
2023-04-19T04:08:41.794Z,77.37
2023-04-19T04:11:08.302Z,78.86
2023-04-19T04:13:34.820Z,78.59
2023-04-19T04:16:01.439Z,77.93
2023-04-19T04:18:28.617Z,77.31
2023-04-19T04:20:55.617Z,77.83
2023-04-19T04:23:22.759Z,76.44
2023-04-19T04:25:58.024Z,77.50
2023-04-19T04:28:24.548Z,77.62
2023-04-19T04:30:51.927Z,78.42
2023-04-19T04:33:18.609Z,78.53
2023-04-19T04:35:45.081Z,79.13
2023-04-19T04:38:23.484Z,77.83
2023-04-19T04:40:55.768Z,76.95
2023-04-19T04:43:24.001Z,77.23
2023-04-19T04:45:50.589Z,76.96
2023-04-19T04:48:17.383Z,77.03
2023-04-19T04:50:44.274Z,76.93
2023-04-19T04:53:13.171Z,76.03
2023-04-19T04:55:39.860Z,76.21
2023-04-19T04:58:06.707Z,77.01
2023-04-19T05:00:33.827Z,76.58
2023-04-19T05:03:00.649Z,76.99
2023-04-19T05:05:27.267Z,76.84
2023-04-19T05:07:53.794Z,77.63
2023-04-19T05:10:20.315Z,76.87
2023-04-19T05:12:46.875Z,77.04
2023-04-19T05:15:13.285Z,76.48
2023-04-19T05:17:39.819Z,76.63
2023-04-19T05:20:06.831Z,75.75
2023-04-19T05:22:33.321Z,77.16
2023-04-19T05:24:59.756Z,76.46
2023-04-19T05:27:26.266Z,75.94
2023-04-19T05:29:53.639Z,73.78
2023-04-19T05:32:20.685Z,73.08
2023-04-19T05:34:47.193Z,73.13
2023-04-19T05:37:13.790Z,72.38
2023-04-19T05:39:42.349Z,73.00
2023-04-19T05:42:10.786Z,72.34
2023-04-19T05:44:37.254Z,71.97
2023-04-19T05:47:03.704Z,72.21
2023-04-19T05:49:30.293Z,72.28
2023-04-19T05:51:57.041Z,71.77
2023-04-19T05:54:23.811Z,71.38
2023-04-19T05:56:50.325Z,71.61
2023-04-19T05:59:16.892Z,72.63
2023-04-19T06:01:43.529Z,72.89
2023-04-19T06:04:10.304Z,73.34
2023-04-19T06:06:38.080Z,73.30
2023-04-19T06:09:04.858Z,74.87
2023-04-19T06:11:38.907Z,76.30
2023-04-19T06:14:14.704Z,75.67
2023-04-19T06:16:42.044Z,76.60
2023-04-19T06:19:08.535Z,75.39
2023-04-19T06:21:35.330Z,74.41
2023-04-19T06:24:02.418Z,74.14
2023-04-19T06:26:28.993Z,73.63
2023-04-19T06:28:55.811Z,73.34
2023-04-19T06:31:22.371Z,75.14
2023-04-19T06:33:48.916Z,76.01
2023-04-19T06:36:15.658Z,77.07
2023-04-19T06:38:44.496Z,77.90
2023-04-19T06:41:11.000Z,78.26
2023-04-19T06:43:37.595Z,80.19
2023-04-19T06:46:07.277Z,81.56
2023-04-19T06:48:34.922Z,82.43
2023-04-19T06:51:01.533Z,81.69
2023-04-19T06:53:28.222Z,84.06
2023-04-19T06:56:02.539Z,88.88
2023-04-19T06:58:29.125Z,89.71
2023-04-19T07:00:56.182Z,88.29
2023-04-19T07:03:22.947Z,89.19
2023-04-19T07:05:52.228Z,90.06
2023-04-19T07:08:18.868Z,91.74
2023-04-19T07:10:45.400Z,91.30
2023-04-19T07:13:12.100Z,90.29
2023-04-19T07:15:38.623Z,89.91
2023-04-19T07:18:05.556Z,91.45
2023-04-19T07:20:32.276Z,91.27
2023-04-19T07:22:59.580Z,92.37
2023-04-19T07:25:26.518Z,89.11
2023-04-19T07:27:54.604Z,89.57
2023-04-19T07:30:21.355Z,88.93
2023-04-19T07:32:48.416Z,88.48
2023-04-19T07:35:15.022Z,88.45
2023-04-19T07:37:42.706Z,88.30
2023-04-19T07:40:09.893Z,87.68
2023-04-19T07:42:36.533Z,85.63
2023-04-19T07:45:03.283Z,85.42
2023-04-19T07:47:29.860Z,85.35
2023-04-19T07:49:56.507Z,85.37
2023-04-19T07:52:23.030Z,85.43
2023-04-19T07:54:49.701Z,85.07
2023-04-19T07:57:16.282Z,85.83
2023-04-19T07:59:42.813Z,85.62
2023-04-19T08:02:09.362Z,85.28
2023-04-19T08:04:37.458Z,85.70
2023-04-19T08:07:04.863Z,86.51
2023-04-19T08:09:33.988Z,88.66
2023-04-19T08:12:01.362Z,88.90
2023-04-19T08:14:37.512Z,90.03
2023-04-19T08:17:23.946Z,90.51
2023-04-19T08:19:53.347Z,90.44
2023-04-19T08:22:21.594Z,89.70
2023-04-19T08:24:54.338Z,90.44
2023-04-19T08:27:21.761Z,91.65
2023-04-19T08:29:48.543Z,92.07
2023-04-19T08:32:15.041Z,92.88
2023-04-19T08:34:41.653Z,90.96
2023-04-19T08:37:08.137Z,91.83
2023-04-19T08:39:35.222Z,92.66
2023-04-19T08:42:24.625Z,92.46
2023-04-19T08:45:13.714Z,90.80
2023-04-19T08:47:58.622Z,91.39
2023-04-19T08:50:33.525Z,91.55
2023-04-19T08:53:20.204Z,90.93
2023-04-19T08:58:28.834Z,91.27
2023-04-19T09:01:12.793Z,91.85
2023-04-19T09:04:00.348Z,91.69
2023-04-19T09:06:29.850Z,92.39
2023-04-19T09:09:28.756Z,92.26
2023-04-19T09:12:00.447Z,91.69
2023-04-19T09:14:28.572Z,91.29
2023-04-19T09:17:13.094Z,91.32
2023-04-19T09:19:47.817Z,91.76
2023-04-19T09:22:14.871Z,92.33
2023-04-19T09:27:12.352Z,92.08
2023-04-19T09:29:39.052Z,91.29
2023-04-19T09:32:06.129Z,90.19
2023-04-19T09:34:32.991Z,91.22
2023-04-19T09:37:20.832Z,91.47
2023-04-19T09:39:59.280Z,92.15
2023-04-19T09:43:05.288Z,92.49
2023-04-19T09:45:45.800Z,92.88
2023-04-19T09:48:13.233Z,92.08
2023-04-19T09:51:04.622Z,91.72
2023-04-19T09:53:34.474Z,91.74
2023-04-19T09:56:02.988Z,92.78
2023-04-19T10:01:13.411Z,92.18
2023-04-19T10:03:44.535Z,92.21
2023-04-19T10:06:31.705Z,92.75
2023-04-19T10:09:06.401Z,92.58
2023-04-19T10:11:38.599Z,94.82
2023-04-19T10:14:07.666Z,95.79
2023-04-19T10:16:35.860Z,93.17
2023-04-19T10:19:12.289Z,93.79
2023-04-19T10:21:41.337Z,94.37
2023-04-19T10:24:09.783Z,94.13
2023-04-19T10:27:11.210Z,94.16
2023-04-19T10:30:07.528Z,95.37
2023-04-19T10:32:39.406Z,94.46
2023-04-19T10:35:10.050Z,93.33
2023-04-19T10:37:40.869Z,95.72
2023-04-19T10:40:08.644Z,93.16
2023-04-19T10:43:13.264Z,95.79
2023-04-19T10:45:39.955Z,95.31
2023-04-19T10:48:06.650Z,95.99
2023-04-19T10:50:58.702Z,95.43
2023-04-19T10:53:54.195Z,96.45
2023-04-19T10:56:42.595Z,96.30
2023-04-19T10:59:15.800Z,95.39
2023-04-19T11:01:44.853Z,96.24
2023-04-19T11:04:16.870Z,96.57
2023-04-19T11:06:55.335Z,95.20
2023-04-19T11:09:27.830Z,94.59
2023-04-19T11:11:58.582Z,93.67
2023-04-19T11:14:25.547Z,91.96
2023-04-19T11:16:52.090Z,92.77
2023-04-19T11:19:20.312Z,91.66
2023-04-19T11:21:47.660Z,91.22
2023-04-19T11:24:18.463Z,92.20
2023-04-19T11:26:46.183Z,91.79
2023-04-19T11:29:14.441Z,90.80
2023-04-19T11:31:44.152Z,90.36
2023-04-19T11:34:10.684Z,89.90
2023-04-19T11:36:47.802Z,90.60
2023-04-19T11:39:14.358Z,90.54
2023-04-19T11:41:40.952Z,90.68
2023-04-19T11:44:20.094Z,90.89
2023-04-19T11:47:02.708Z,90.81
2023-04-19T11:49:31.067Z,90.72
2023-04-19T11:52:05.504Z,90.69
2023-04-19T11:54:33.034Z,89.61
2023-04-19T11:57:04.928Z,89.69
2023-04-19T11:59:32.817Z,90.56
2023-04-19T12:02:11.269Z,90.70
2023-04-19T12:04:39.071Z,90.23
2023-04-19T12:07:06.973Z,91.19
2023-04-19T12:09:35.830Z,90.13
2023-04-19T12:12:03.125Z,89.22
2023-04-19T12:14:30.501Z,89.14
2023-04-19T12:17:11.924Z,88.84
2023-04-19T12:19:44.402Z,88.02
2023-04-19T12:22:22.035Z,87.92
2023-04-19T12:24:51.696Z,87.94
2023-04-19T12:27:18.368Z,88.50
2023-04-19T12:29:44.958Z,88.69
2023-04-19T12:32:11.607Z,88.67
2023-04-19T12:34:38.029Z,88.01
2023-04-19T12:37:04.566Z,87.68
2023-04-19T12:39:31.080Z,87.45
2023-04-19T12:41:57.604Z,87.14
2023-04-19T12:44:24.280Z,87.19
2023-04-19T12:46:50.773Z,86.93
2023-04-19T12:49:20.365Z,86.98
2023-04-19T12:51:47.606Z,85.76
2023-04-19T12:54:15.380Z,85.66
2023-04-19T12:56:41.908Z,85.56
2023-04-19T12:59:08.393Z,85.41
2023-04-19T13:01:34.987Z,84.93
2023-04-19T13:04:02.073Z,84.96
2023-04-19T13:06:28.715Z,85.57
2023-04-19T13:08:55.293Z,86.28
2023-04-19T13:11:23.478Z,86.54
2023-04-19T13:13:51.736Z,86.88
2023-04-19T13:16:18.659Z,85.98
2023-04-19T13:18:45.490Z,86.35
2023-04-19T13:21:12.081Z,87.07
2023-04-19T13:23:38.884Z,86.91
2023-04-19T13:26:06.132Z,86.64
2023-04-19T13:28:35.628Z,87.61
2023-04-19T13:31:03.695Z,87.49
2023-04-19T13:33:30.183Z,86.67
2023-04-19T13:35:56.750Z,87.38
2023-04-19T13:38:23.832Z,86.97
2023-04-19T13:40:50.827Z,86.45
2023-04-19T13:43:17.468Z,86.84
2023-04-19T13:45:43.953Z,87.17
2023-04-19T13:48:10.591Z,87.54
2023-04-19T13:50:37.352Z,86.51
2023-04-19T13:53:03.907Z,86.80
2023-04-19T13:55:30.458Z,86.21
2023-04-19T13:57:57.038Z,86.69
2023-04-19T14:00:24.590Z,86.73
2023-04-19T14:02:52.631Z,86.89
2023-04-19T14:05:19.445Z,86.52
2023-04-19T14:07:46.461Z,86.95
2023-04-19T14:10:13.002Z,86.99
2023-04-19T14:12:39.475Z,87.44
2023-04-19T14:15:06.394Z,87.81
2023-04-19T14:17:32.865Z,88.17
2023-04-19T14:20:01.750Z,86.96
2023-04-19T14:22:28.337Z,87.02
2023-04-19T14:24:54.960Z,86.95
2023-04-19T14:27:21.667Z,86.74
2023-04-19T14:29:48.175Z,87.47
2023-04-19T14:34:45.875Z,86.69
2023-04-19T14:37:12.416Z,87.44
2023-04-19T14:39:38.931Z,87.64
2023-04-19T14:42:05.618Z,87.03
2023-04-19T14:44:32.107Z,87.49
2023-04-19T14:46:58.637Z,87.44
2023-04-19T14:49:25.107Z,86.50
2023-04-19T14:51:52.372Z,87.00
2023-04-19T14:54:18.838Z,87.06
2023-04-19T14:56:45.422Z,86.50
2023-04-19T14:59:11.881Z,85.01
2023-04-19T15:01:38.448Z,85.96
2023-04-19T15:04:05.296Z,85.41
2023-04-19T15:06:32.318Z,86.26
2023-04-19T15:08:58.784Z,86.71
2023-04-19T15:11:25.368Z,86.82
2023-04-19T15:13:51.956Z,86.50
2023-04-19T15:16:18.779Z,87.04
2023-04-19T15:18:45.633Z,86.31
2023-04-19T15:21:12.088Z,85.81
2023-04-19T15:23:38.738Z,86.69
2023-04-19T15:26:05.316Z,87.00
2023-04-19T15:28:35.250Z,87.19
2023-04-19T15:31:04.198Z,86.87
2023-04-19T15:33:31.115Z,87.27
2023-04-19T15:35:58.496Z,86.82
2023-04-19T15:38:27.648Z,86.45
2023-04-19T15:40:55.756Z,86.72
2023-04-19T15:43:23.611Z,86.90
2023-04-19T15:45:50.656Z,86.55
2023-04-19T15:48:17.511Z,85.96
2023-04-19T15:50:44.366Z,85.74
2023-04-19T15:53:11.243Z,86.02
2023-04-19T15:55:38.926Z,87.19
2023-04-19T15:58:06.323Z,86.48
2023-04-19T16:00:34.208Z,87.48
2023-04-19T16:03:00.851Z,87.63
2023-04-19T16:05:27.544Z,87.87
2023-04-19T16:08:08.237Z,88.36
2023-04-19T16:10:35.020Z,88.14
2023-04-19T16:13:03.031Z,88.40
2023-04-19T16:15:29.953Z,88.39
2023-04-19T16:17:56.494Z,88.25
2023-04-19T16:20:23.080Z,89.24
2023-04-19T16:22:49.962Z,91.07
2023-04-19T16:25:17.163Z,89.79
2023-04-19T16:27:45.923Z,91.17
2023-04-19T16:30:14.510Z,91.34
2023-04-19T16:32:41.805Z,92.79
2023-04-19T16:35:09.356Z,91.72
2023-04-19T16:37:36.036Z,91.85
2023-04-19T16:40:08.039Z,92.42
2023-04-19T16:42:35.383Z,91.42
2023-04-19T16:45:02.172Z,91.32
2023-04-19T16:47:30.192Z,91.25
2023-04-19T16:50:00.634Z,91.12
2023-04-19T16:52:28.552Z,94.44
2023-04-19T16:54:55.194Z,94.67
2023-04-19T16:57:23.161Z,95.19
2023-04-19T16:59:50.361Z,94.92
2023-04-19T17:02:17.305Z,93.42
2023-04-19T17:04:44.262Z,93.00
2023-04-19T17:07:11.612Z,92.17
2023-04-19T17:09:38.114Z,94.01
2023-04-19T17:12:05.165Z,93.72
2023-04-19T17:14:34.546Z,93.58
2023-04-19T17:17:01.230Z,93.33
2023-04-19T17:19:27.834Z,92.72
2023-04-19T17:21:54.530Z,93.80
2023-04-19T17:24:21.094Z,93.39
2023-04-19T17:26:47.800Z,93.02
2023-04-19T17:29:14.270Z,92.82
2023-04-19T17:31:40.769Z,92.30
2023-04-19T17:34:07.344Z,91.44
2023-04-19T17:36:33.850Z,92.96
2023-04-19T17:39:00.417Z,94.81
2023-04-19T17:41:27.450Z,93.38
2023-04-19T17:43:54.019Z,93.18
2023-04-19T17:46:22.231Z,94.89
2023-04-19T17:48:48.810Z,93.76
2023-04-19T17:51:15.377Z,95.07
2023-04-19T17:53:41.881Z,94.58
2023-04-19T17:56:08.439Z,93.91
2023-04-19T17:58:36.457Z,94.55
2023-04-19T18:01:03.537Z,93.80
2023-04-19T18:03:30.932Z,93.41
2023-04-19T18:05:57.629Z,93.00
2023-04-19T18:08:24.411Z,93.38
2023-04-19T18:10:51.054Z,93.52
2023-04-19T18:13:17.550Z,92.92
2023-04-19T18:15:44.043Z,93.44
2023-04-19T18:18:10.630Z,94.17
2023-04-19T18:20:37.436Z,93.58
2023-04-19T18:23:04.114Z,93.55
2023-04-19T18:25:30.663Z,93.71
2023-04-19T18:27:57.367Z,93.12
2023-04-19T18:30:23.873Z,93.36
2023-04-19T18:32:50.533Z,94.11
2023-04-19T18:35:17.127Z,93.57
2023-04-19T18:37:44.029Z,95.14
2023-04-19T18:40:11.304Z,95.56
2023-04-19T18:42:37.790Z,94.32
2023-04-19T18:45:04.716Z,95.80
2023-04-19T18:47:31.571Z,97.63
2023-04-19T18:50:05.380Z,96.35
2023-04-19T18:52:35.665Z,96.59
2023-04-19T18:55:03.077Z,96.45
2023-04-19T18:57:34.180Z,97.76
2023-04-19T19:00:01.874Z,96.14
2023-04-19T19:02:34.289Z,95.00
2023-04-19T19:05:02.307Z,97.24
2023-04-19T19:07:36.807Z,97.25
2023-04-19T19:10:16.753Z,96.38
2023-04-19T19:12:46.134Z,95.47
2023-04-19T19:15:13.749Z,95.80
2023-04-19T19:17:40.752Z,97.22
2023-04-19T19:20:08.096Z,96.09
2023-04-19T19:22:35.178Z,96.61
2023-04-19T19:25:01.776Z,96.93
2023-04-19T19:27:28.340Z,98.24
2023-04-19T19:29:55.265Z,97.50
2023-04-19T19:32:22.036Z,97.34
2023-04-19T19:37:19.124Z,97.76
2023-04-19T19:39:46.627Z,98.77
2023-04-19T19:42:16.684Z,97.87
2023-04-19T19:44:43.512Z,99.16
2023-04-19T19:47:10.996Z,98.60
2023-04-19T19:52:07.454Z,96.85
2023-04-19T19:54:34.110Z,98.00
2023-04-19T19:57:56.568Z,97.33
2023-04-19T19:59:52.709Z,98.16
2023-04-19T20:02:26.648Z,96.41
2023-04-19T20:04:53.487Z,96.70
2023-04-19T20:09:50.928Z,98.13
2023-04-19T20:12:17.568Z,97.44
2023-04-19T20:14:44.099Z,98.95
2023-04-19T20:17:10.575Z,100.00
2023-04-19T20:19:37.437Z,99.28
2023-04-19T20:22:04.484Z,98.69
2023-04-19T20:24:31.835Z,99.09
2023-04-19T20:26:58.327Z,98.15
2023-04-19T20:29:24.966Z,97.03
2023-04-19T20:31:51.475Z,96.56
2023-04-19T20:34:18.246Z,96.69
2023-04-19T20:36:46.923Z,97.39
2023-04-19T20:39:13.865Z,96.57
2023-04-19T20:41:40.702Z,96.45
2023-04-19T20:44:07.507Z,96.20
2023-04-19T20:46:36.910Z,96.46
2023-04-19T20:49:03.361Z,96.25
2023-04-19T20:51:29.878Z,96.36
2023-04-19T20:53:56.373Z,95.91
2023-04-19T20:56:23.121Z,95.45
2023-04-19T20:58:49.834Z,95.39
2023-04-19T21:01:17.493Z,95.62
2023-04-19T21:03:44.852Z,95.07
2023-04-19T21:06:12.192Z,94.69
2023-04-19T21:08:38.932Z,96.62
2023-04-19T21:11:05.500Z,97.44
2023-04-19T21:13:32.680Z,97.10
2023-04-19T21:15:59.363Z,96.51
2023-04-19T21:18:27.717Z,96.61
2023-04-19T21:20:54.222Z,97.26
2023-04-19T21:23:20.768Z,97.14
2023-04-19T21:25:47.289Z,96.51
2023-04-19T21:28:13.864Z,96.71
2023-04-19T21:30:43.250Z,96.04
2023-04-19T21:33:10.218Z,96.10
2023-04-19T21:35:36.927Z,95.75
2023-04-19T21:38:03.518Z,95.24
2023-04-19T21:40:30.173Z,95.95
2023-04-19T21:42:57.055Z,95.65
2023-04-19T21:45:24.115Z,96.10
2023-04-19T21:47:51.166Z,96.24
2023-04-19T21:50:17.891Z,96.57
2023-04-19T21:52:44.432Z,96.06
2023-04-19T21:55:10.984Z,96.14
2023-04-19T21:57:38.378Z,95.87
2023-04-19T22:00:06.448Z,95.51
2023-04-19T22:02:33.030Z,96.78
2023-04-19T22:05:00.330Z,96.16
2023-04-19T22:07:30.594Z,96.33
2023-04-19T22:09:58.130Z,96.35
2023-04-19T22:12:24.760Z,96.93
2023-04-19T22:14:51.381Z,97.63
2023-04-19T22:17:21.427Z,97.48
2023-04-19T22:19:48.530Z,97.94
2023-04-19T22:22:15.203Z,97.32
2023-04-19T22:24:56.103Z,98.05
2023-04-19T22:27:24.534Z,97.22
2023-04-19T22:29:51.054Z,97.23
2023-04-19T22:32:17.630Z,97.11
2023-04-19T22:34:44.180Z,96.47
2023-04-19T22:37:10.865Z,96.63
2023-04-19T22:39:37.474Z,96.98
2023-04-19T22:42:04.243Z,96.73
2023-04-19T22:44:30.893Z,97.65
2023-04-19T22:46:58.298Z,97.47
2023-04-19T22:49:24.926Z,96.77
2023-04-19T22:51:51.449Z,96.78
2023-04-19T22:54:17.930Z,96.82
2023-04-19T22:56:44.414Z,96.24
2023-04-19T22:59:11.138Z,96.46
2023-04-19T23:01:37.720Z,96.73
2023-04-19T23:04:04.575Z,96.87
2023-04-19T23:06:32.425Z,97.13
2023-04-19T23:09:00.740Z,96.45
2023-04-19T23:11:29.938Z,96.93
2023-04-19T23:13:56.481Z,96.64
2023-04-19T23:16:24.412Z,96.08
2023-04-19T23:18:50.912Z,95.92
2023-04-19T23:21:17.449Z,96.14
2023-04-19T23:23:43.905Z,96.87
2023-04-19T23:26:10.353Z,96.32
2023-04-19T23:28:36.854Z,96.33
2023-04-19T23:31:03.325Z,96.85
2023-04-19T23:33:29.869Z,95.89
2023-04-19T23:35:56.294Z,96.15
2023-04-19T23:38:22.800Z,96.31
2023-04-19T23:40:49.256Z,96.42
2023-04-19T23:43:15.724Z,96.64
2023-04-19T23:45:42.149Z,96.86
2023-04-19T23:48:08.661Z,96.86
2023-04-19T23:50:35.209Z,96.31
2023-04-19T23:53:03.155Z,96.38
2023-04-19T23:55:29.816Z,97.15
2023-04-19T23:57:56.242Z,96.26
